Time;durP1;ratioP1;P1;durP2;ratioP2;P2;SDS_P1;SDS_P2;PMS_P1;PMS_P2;Temp;Humidity;BMP_temperature;BMP_pressure;BME280_temperature;BME280_humidity;BME280_pressure;Samples;Min_cycle;Max_cycle;Signal;HPM_P1;HPM_P2
2022/03/17 00:01:18;;;;;;;16.20;11.30;;;;;;;11.39;64.86;99961.88;4957737;29;20309;-65
2022/03/17 00:03:45;;;;;;;18.05;10.52;;;;;;;11.41;64.51;99962.66;4954758;29;20396;-65
2022/03/17 00:06:11;;;;;;;15.80;9.57;;;;;;;11.45;64.46;99963.38;4960707;29;20090;-64
2022/03/17 00:08:37;;;;;;;14.43;10.65;;;;;;;11.41;64.85;99967.94;4962121;28;20109;-66
2022/03/17 00:11:03;;;;;;;13.05;9.85;;;;;;;11.44;64.38;99959.84;4954539;29;20094;-64
2022/03/17 00:13:29;;;;;;;17.75;11.40;;;;;;;11.47;64.83;99969.41;4936575;29;20047;-66
2022/03/17 00:15:54;;;;;;;15.32;12.57;;;;;;;11.42;64.37;99961.72;4952764;29;20038;-65
2022/03/17 00:18:19;;;;;;;26.45;12.35;;;;;;;11.46;64.24;99955.34;4952712;29;20031;-65
2022/03/17 00:20:44;;;;;;;20.65;11.93;;;;;;;11.49;63.96;99956.97;4952133;29;20035;-65
2022/03/17 00:23:10;;;;;;;13.23;11.25;;;;;;;11.51;64.31;99963.03;4952117;29;20035;-64
2022/03/17 00:25:35;;;;;;;21.10;11.15;;;;;;;11.52;64.15;99956.84;4935050;29;20042;-66
2022/03/17 00:28:01;;;;;;;14.15;11.65;;;;;;;11.51;64.29;99955.13;4952407;29;20035;-65
2022/03/17 00:30:26;;;;;;;16.92;12.13;;;;;;;11.53;64.14;99958.53;4951611;29;20046;-65
2022/03/17 00:32:52;;;;;;;15.05;10.48;;;;;;;11.52;64.16;99962.97;4951562;29;20495;-65
2022/03/17 00:35:35;;;;;;;19.27;9.88;;;;;;;11.51;64.34;99960.41;4934424;29;20051;-65
2022/03/17 00:38:07;;;;;;;16.65;11.60;;;;;;;11.53;64.30;99958.53;4951579;28;20121;-66
2022/03/17 00:40:33;;;;;;;14.50;10.50;;;;;;;11.53;64.91;99961.19;4950333;28;20044;-65
2022/03/17 00:42:59;;;;;;;16.67;10.88;;;;;;;11.52;64.63;99962.13;4951422;28;20047;-66
2022/03/17 00:45:25;;;;;;;11.32;8.63;;;;;;;11.56;64.38;99958.38;4951680;28;20043;-66
2022/03/17 00:47:50;;;;;;;13.57;10.30;;;;;;;11.58;64.38;99961.81;4951686;28;20034;-66
2022/03/17 00:50:16;;;;;;;14.40;10.32;;;;;;;11.58;64.01;99962.66;4951207;28;20046;-66
2022/03/17 00:52:41;;;;;;;15.88;11.98;;;;;;;11.59;64.03;99952.94;4934209;29;20043;-66
2022/03/17 00:55:07;;;;;;;16.75;11.60;;;;;;;11.56;64.58;99951.31;4951450;28;20039;-66
2022/03/17 00:57:34;;;;;;;13.25;10.05;;;;;;;11.58;64.64;99945.97;4951577;28;20039;-66
2022/03/17 00:59:59;;;;;;;17.23;11.23;;;;;;;11.60;64.43;99944.09;4951397;28;20063;-65
2022/03/17 01:02:25;;;;;;;12.93;9.25;;;;;;;11.61;64.48;99951.06;4951191;28;20526;-66
2022/03/17 01:04:50;;;;;;;14.77;10.60;;;;;;;11.60;64.52;99944.94;4951625;28;20127;-66
2022/03/17 01:07:15;;;;;;;13.52;10.90;;;;;;;11.60;64.84;99962.59;4951651;28;20042;-65
2022/03/17 01:09:41;;;;;;;23.00;12.43;;;;;;;11.56;65.09;99953.94;4951957;28;20110;-64
2022/03/17 01:12:07;;;;;;;14.23;10.68;;;;;;;11.52;65.08;99962.13;4951822;28;20039;-65
2022/03/17 01:14:32;;;;;;;21.75;10.80;;;;;;;11.57;64.43;99960.09;4951717;28;21023;-66
2022/03/17 01:16:57;;;;;;;15.38;9.38;;;;;;;11.58;65.01;99961.81;4951829;28;20031;-66
2022/03/17 01:19:23;;;;;;;15.60;10.95;;;;;;;11.55;65.32;99960.19;4953560;28;20093;-65
2022/03/17 01:21:50;;;;;;;15.27;11.00;;;;;;;11.57;65.14;99970.66;4957248;28;20108;-66
2022/03/17 01:24:16;;;;;;;14.25;10.30;;;;;;;11.55;64.80;99961.97;4957555;28;20046;-66
2022/03/17 01:26:42;;;;;;;18.45;11.20;;;;;;;11.52;65.30;99964.78;4958063;28;20031;-64
2022/03/17 01:29:07;;;;;;;20.55;12.50;;;;;;;11.49;65.48;99968.38;4957473;28;20062;-64
2022/03/17 01:31:32;;;;;;;14.07;10.60;;;;;;;11.45;65.36;99958.94;4956828;28;20037;-67
2022/03/17 01:33:58;;;;;;;17.13;10.95;;;;;;;11.46;65.79;99972.97;4957093;28;20066;-66
2022/03/17 01:36:24;;;;;;;20.05;12.13;;;;;;;11.47;65.84;99982.59;4957289;28;20070;-66
2022/03/17 01:38:50;;;;;;;19.25;12.55;;;;;;;11.47;65.98;99970.28;4957293;28;20134;-66
2022/03/17 01:41:15;;;;;;;14.27;11.02;;;;;;;11.50;65.58;99967.47;4956830;28;20046;-66
2022/03/17 01:43:41;;;;;;;17.77;11.63;;;;;;;11.54;65.96;99966.41;4949266;28;20089;-66
2022/03/17 01:46:07;;;;;;;18.75;12.77;;;;;;;11.57;65.77;99978.59;4957233;28;20027;-65
2022/03/17 01:48:33;;;;;;;19.75;12.95;;;;;;;11.60;66.27;99978.44;4957061;28;20051;-65
2022/03/17 01:50:58;;;;;;;20.25;12.55;;;;;;;11.63;65.79;99982.69;4956729;28;20446;-66
2022/03/17 01:53:24;;;;;;;18.00;13.55;;;;;;;11.64;66.13;99976.47;4956371;28;20044;-66
2022/03/17 01:55:49;;;;;;;24.40;14.38;;;;;;;11.65;66.14;99973.78;4957094;28;20031;-66
2022/03/17 01:58:16;;;;;;;15.93;12.25;;;;;;;11.66;66.55;99972.81;4956783;29;20067;-64
2022/03/17 02:00:45;;;;;;;23.65;13.55;;;;;;;11.68;66.60;99972.75;4950438;29;20039;-65
2022/03/17 02:03:11;;;;;;;22.10;12.65;;;;;;;11.70;65.91;99973.53;4956895;29;20174;-66
2022/03/17 02:05:36;;;;;;;16.50;12.23;;;;;;;11.69;66.07;99970.06;4957518;29;20118;-67
2022/03/17 02:08:02;;;;;;;20.17;13.80;;;;;;;11.72;66.11;99977.81;4957125;28;20042;-67
2022/03/17 02:13:08;;;;;;;20.67;14.45;;;;;;;11.73;66.57;99979.50;4956728;28;20509;-66
2022/03/17 02:13:13;;;;;;;23.92;13.63;;;;;;;11.72;66.36;99991.00;4956414;29;20079;-65
2022/03/17 02:15:38;;;;;;;21.63;14.90;;;;;;;11.71;66.14;99986.66;4956985;29;20053;-65
2022/03/17 02:18:06;;;;;;;24.23;16.60;;;;;;;11.70;66.36;99981.47;4957193;28;20038;-64
2022/03/17 02:20:33;;;;;;;21.85;15.23;;;;;;;11.70;66.05;99982.31;4956725;29;20043;-67
2022/03/17 02:25:54;;;;;;;19.67;14.02;;;;;;;11.71;66.13;99981.38;4956297;28;20086;-66
2022/03/17 02:28:21;;;;;;;30.23;16.65;;;;;;;11.69;66.25;99979.72;4956064;28;20039;-67
2022/03/17 02:30:46;;;;;;;25.25;18.02;;;;;;;11.67;66.26;99979.84;4954778;28;20043;-66
2022/03/17 02:33:16;;;;;;;22.40;15.30;;;;;;;11.67;66.24;99976.34;4953360;28;20031;-67
2022/03/17 02:35:43;;;;;;;33.33;15.77;;;;;;;11.68;66.66;99984.16;4953831;28;20043;-66
2022/03/17 02:38:13;;;;;;;24.05;16.70;;;;;;;11.67;66.89;99982.47;4952995;28;20166;-65
2022/03/17 02:40:40;;;;;;;25.23;15.45;;;;;;;11.64;66.84;99980.00;4953884;29;20031;-66
2022/03/17 02:43:06;;;;;;;25.05;16.55;;;;;;;11.65;67.02;99989.63;4936863;29;20529;-67
2022/03/17 02:45:33;;;;;;;22.05;14.93;;;;;;;11.66;66.94;99985.19;4954885;29;20035;-66
2022/03/17 02:47:58;;;;;;;29.23;17.02;;;;;;;11.67;67.17;99998.31;4953449;28;20046;-67
2022/03/17 02:50:24;;;;;;;27.05;18.10;;;;;;;11.68;67.46;99989.44;4954226;29;20035;-67
2022/03/17 02:52:50;;;;;;;22.70;15.02;;;;;;;11.69;67.40;99993.81;4953277;28;20107;-67
2022/03/17 02:55:15;;;;;;;29.10;18.70;;;;;;;11.70;67.06;100003.44;4953271;28;20523;-65
2022/03/17 02:57:43;;;;;;;23.70;16.48;;;;;;;11.72;67.37;100004.22;4953887;28;20105;-66
2022/03/17 03:00:10;;;;;;;28.33;17.02;;;;;;;11.73;67.50;100005.91;4948332;29;20035;-66
2022/03/17 03:02:36;;;;;;;22.80;17.58;;;;;;;11.73;67.62;100002.44;4953132;28;20037;-67
2022/03/17 03:05:03;;;;;;;28.17;17.33;;;;;;;11.73;67.62;100007.72;4953385;29;20411;-67
2022/03/17 03:07:28;;;;;;;25.52;17.92;;;;;;;11.74;67.47;100022.63;4953437;29;20043;-66
2022/03/17 03:09:55;;;;;;;23.38;17.20;;;;;;;11.74;68.33;100019.97;4953045;29;20035;-66
2022/03/17 03:12:20;;;;;;;23.92;16.67;;;;;;;11.72;67.75;100024.50;4952783;29;20491;-66
2022/03/17 03:14:46;;;;;;;26.95;19.92;;;;;;;11.71;68.44;100031.53;4953222;28;20035;-66
2022/03/17 03:17:12;;;;;;;22.30;15.23;;;;;;;11.69;68.69;100045.75;4953081;29;20035;-66
2022/03/17 03:19:37;;;;;;;26.70;18.42;;;;;;;11.67;68.48;100050.28;4953786;29;20046;-67
2022/03/17 03:22:03;;;;;;;33.33;20.52;;;;;;;11.61;68.67;100052.28;4952891;28;20035;-66
2022/03/17 03:24:28;;;;;;;31.35;18.83;;;;;;;11.61;68.76;100056.69;4951717;29;20046;-66
2022/03/17 03:26:53;;;;;;;30.40;19.65;;;;;;;11.59;69.67;100062.09;4953270;29;20680;-65
2022/03/17 03:31:52;;;;;;;31.83;19.15;;;;;;;11.58;69.64;100080.63;4952454;29;20028;-67
2022/03/17 03:34:18;;;;;;;27.58;21.15;;;;;;;11.56;70.07;100085.97;4952851;29;20070;-67
2022/03/17 03:39:27;;;;;;;32.47;21.45;;;;;;;11.54;71.54;100082.56;4952720;28;20038;-66
2022/03/17 03:41:52;;;;;;;31.15;19.45;;;;;;;11.51;71.74;100087.97;4951556;28;20039;-67
2022/03/17 03:44:18;;;;;;;27.17;21.20;;;;;;;11.50;72.30;100091.56;4952381;28;20039;-66
2022/03/17 03:46:44;;;;;;;27.13;21.38;;;;;;;11.46;73.00;100095.28;4952775;28;20039;-67
2022/03/17 03:49:09;;;;;;;35.20;24.27;;;;;;;11.43;73.45;100091.94;4952537;28;20546;-66
2022/03/17 03:51:35;;;;;;;43.45;24.27;;;;;;;11.37;74.51;100103.63;4951957;29;20055;-66
2022/03/17 03:54:18;;;;;;;41.58;26.25;;;;;;;11.33;74.95;100113.47;4952756;29;20122;-66
2022/03/17 03:56:55;;;;;;;34.85;23.65;;;;;;;11.29;75.72;100105.78;4952157;29;20058;-68
2022/03/17 03:59:26;;;;;;;35.20;23.20;;;;;;;11.28;76.21;100110.22;4952447;29;20034;-65
2022/03/17 04:02:00;;;;;;;37.90;26.75;;;;;;;11.23;76.63;100119.28;4942334;29;20035;-66
2022/03/17 04:04:28;;;;;;;42.80;25.67;;;;;;;11.12;77.55;100119.75;4934779;29;20035;-67
2022/03/17 04:06:58;;;;;;;29.50;22.52;;;;;;;11.09;77.91;100133.94;4952059;28;20110;-66
2022/03/17 04:09:27;;;;;;;37.55;26.67;;;;;;;11.04;77.92;100135.09;4952308;29;20556;-64
2022/03/17 04:11:53;;;;;;;36.38;25.25;;;;;;;11.00;78.93;100136.16;4951478;29;20035;-66
2022/03/17 04:14:19;;;;;;;35.97;23.58;;;;;;;11.00;79.14;100144.06;4951725;29;20054;-66
2022/03/17 04:16:44;;;;;;;36.97;27.92;;;;;;;10.98;79.07;100153.81;4951459;28;20035;-65
2022/03/17 04:19:10;;;;;;;31.10;23.83;;;;;;;10.93;79.68;100148.78;4952186;29;20030;-66
2022/03/17 04:21:35;;;;;;;35.80;26.25;;;;;;;10.87;80.06;100154.31;4933774;29;20046;-65
2022/03/17 04:24:01;;;;;;;37.55;26.25;;;;;;;10.79;80.73;100154.66;4951585;29;20444;-66
2022/03/17 04:26:27;;;;;;;38.90;26.23;;;;;;;10.79;80.70;100164.34;4951661;29;20124;-66
2022/03/17 04:28:53;;;;;;;35.78;26.25;;;;;;;10.73;81.64;100181.28;4951795;28;20038;-66
2022/03/17 04:31:20;;;;;;;36.15;26.65;;;;;;;10.61;82.12;100193.22;4951298;28;20677;-66
2022/03/17 04:33:46;;;;;;;23.85;17.42;;;;;;;10.52;81.68;100204.16;4951334;29;20106;-65
2022/03/17 04:36:11;;;;;;;24.17;16.55;;;;;;;10.47;81.72;100207.00;4952270;29;20484;-66
2022/03/17 04:38:36;;;;;;;17.67;14.27;;;;;;;10.37;82.03;100212.72;4952578;28;20031;-66
2022/03/17 04:41:02;;;;;;;20.20;15.20;;;;;;;10.31;82.14;100227.88;4949442;28;20828;-67
2022/03/17 04:43:28;;;;;;;20.50;16.27;;;;;;;10.20;82.47;100232.69;4951676;28;20094;-66
2022/03/17 04:45:53;;;;;;;18.65;15.15;;;;;;;10.07;82.26;100244.63;4951477;28;20086;-65
2022/03/17 04:48:18;;;;;;;19.67;15.82;;;;;;;9.90;82.04;100242.66;4951343;28;20039;-66
2022/03/17 04:50:44;;;;;;;24.40;17.85;;;;;;;9.76;83.05;100242.34;4951072;28;20046;-67
2022/03/17 04:53:30;;;;;;;20.75;17.20;;;;;;;9.68;82.78;100251.38;4951362;28;20045;-67
2022/03/17 04:56:05;;;;;;;25.67;18.83;;;;;;;9.53;83.53;100267.75;4950560;28;20027;-67
2022/03/17 04:58:33;;;;;;;27.13;21.23;;;;;;;9.40;84.16;100266.47;4951506;28;20125;-66
2022/03/17 05:01:00;;;;;;;26.00;21.40;;;;;;;9.34;84.47;100277.25;4950726;28;20082;-67
2022/03/17 05:03:26;;;;;;;27.48;21.40;;;;;;;9.28;83.95;100285.34;4951229;28;20038;-65
2022/03/17 05:05:52;;;;;;;33.15;24.15;;;;;;;9.22;84.40;100292.53;4951441;28;20043;-67
2022/03/17 05:08:17;;;;;;;34.50;24.83;;;;;;;9.19;84.15;100294.44;4951211;28;20046;-66
2022/03/17 05:10:44;;;;;;;39.65;27.55;;;;;;;9.17;84.11;100306.78;4950645;28;20028;-67
2022/03/17 05:13:11;;;;;;;36.97;27.15;;;;;;;9.12;83.48;100306.94;4951374;28;20031;-68
2022/03/17 05:15:38;;;;;;;37.83;27.50;;;;;;;9.11;83.75;100318.38;4951286;28;20090;-68
2022/03/17 05:18:07;;;;;;;38.83;27.98;;;;;;;9.08;82.85;100336.03;4951478;28;20027;-67
2022/03/17 05:20:37;;;;;;;39.80;28.70;;;;;;;9.04;83.11;100332.66;4948782;28;20047;-66
2022/03/17 05:23:04;;;;;;;37.92;28.85;;;;;;;9.01;83.80;100341.50;4932122;29;20119;-66
2022/03/17 05:25:31;;;;;;;39.28;27.55;;;;;;;8.98;82.55;100354.78;4932071;28;20039;-66
2022/03/17 05:27:57;;;;;;;44.88;28.52;;;;;;;8.91;82.89;100360.25;4932057;29;20404;-67
2022/03/17 05:30:22;;;;;;;46.88;29.23;;;;;;;8.85;82.51;100365.72;4931745;29;20045;-66
2022/03/17 05:32:48;;;;;;;39.05;27.80;;;;;;;8.84;82.20;100375.41;4931600;28;20034;-66
2022/03/17 05:35:16;;;;;;;33.88;24.70;;;;;;;8.81;82.71;100381.63;4914874;29;20169;-68
2022/03/17 05:37:42;;;;;;;39.70;27.35;;;;;;;8.79;82.25;100380.81;4932318;29;20444;-67
2022/03/17 05:40:16;;;;;;;35.63;26.85;;;;;;;8.75;81.81;100394.94;4931955;28;20035;-67
2022/03/17 05:42:43;;;;;;;33.90;23.67;;;;;;;8.69;81.56;100405.66;4931292;29;20094;-67
2022/03/17 05:45:09;;;;;;;35.92;24.27;;;;;;;8.67;81.70;100409.25;4932291;29;20047;-65
2022/03/17 05:47:40;;;;;;;30.92;24.98;;;;;;;8.66;81.78;100418.88;4931571;28;20511;-66
2022/03/17 05:50:09;;;;;;;40.42;26.95;;;;;;;8.65;82.12;100421.56;4932210;28;20040;-66
2022/03/17 05:52:36;;;;;;;35.28;26.25;;;;;;;8.58;81.59;100426.16;4931650;28;20100;-64
2022/03/17 05:55:01;;;;;;;36.67;26.65;;;;;;;8.54;81.86;100429.78;4931904;28;20134;-66
2022/03/17 05:57:26;;;;;;;36.85;26.02;;;;;;;8.53;82.40;100431.53;4932361;28;20038;-65
2022/03/17 05:59:52;;;;;;;33.10;23.50;;;;;;;8.55;82.36;100447.28;4931166;29;20055;-65
2022/03/17 06:02:17;;;;;;;29.40;23.10;;;;;;;8.52;81.49;100453.50;4948403;29;20043;-66
2022/03/17 06:04:43;;;;;;;31.83;22.98;;;;;;;8.50;81.00;100463.19;4951311;29;20042;-65
2022/03/17 06:07:08;;;;;;;35.50;24.42;;;;;;;8.48;81.01;100472.00;4954632;28;20036;-65
2022/03/17 06:09:33;;;;;;;32.53;22.98;;;;;;;8.42;80.84;100474.81;4954530;29;20046;-66
2022/03/17 06:11:59;;;;;;;27.90;22.85;;;;;;;8.41;81.17;100473.94;4954635;29;20039;-66
2022/03/17 06:14:26;;;;;;;31.60;22.85;;;;;;;8.40;81.28;100479.28;4937223;29;20118;-66
2022/03/17 06:16:52;;;;;;;26.50;19.80;;;;;;;8.43;80.88;100487.91;4937336;29;20135;-66
2022/03/17 06:19:18;;;;;;;26.17;20.17;;;;;;;8.44;80.28;100489.66;4954381;29;20125;-66
2022/03/17 06:21:43;;;;;;;27.30;19.65;;;;;;;8.47;80.91;100502.69;4954145;29;20419;-66
2022/03/17 06:24:08;;;;;;;27.73;21.15;;;;;;;8.46;79.98;100503.56;4954803;29;20036;-66
2022/03/17 06:26:34;;;;;;;29.17;20.98;;;;;;;8.44;79.90;100517.66;4954403;29;20039;-67
2022/03/17 06:28:59;;;;;;;33.20;25.27;;;;;;;8.42;80.16;100522.09;4953658;29;20051;-66
2022/03/17 06:31:24;;;;;;;35.83;24.17;;;;;;;8.40;80.07;100523.94;4953201;29;20066;-66
2022/03/17 06:33:50;;;;;;;32.10;23.77;;;;;;;8.38;80.30;100523.94;4936575;29;20113;-66
2022/03/17 06:36:15;;;;;;;32.60;23.33;;;;;;;8.38;79.96;100532.66;4954014;29;20039;-67
2022/03/17 06:38:40;;;;;;;38.97;26.10;;;;;;;8.35;80.02;100537.16;4954571;29;20035;-67
2022/03/17 06:41:06;;;;;;;35.00;28.67;;;;;;;8.33;80.64;100539.81;4952923;29;20513;-67
2022/03/17 06:43:31;;;;;;;38.72;28.20;;;;;;;8.34;80.90;100548.56;4953583;29;20039;-66
2022/03/17 06:45:56;;;;;;;42.88;31.02;;;;;;;8.33;79.96;100557.34;4953796;29;20036;-66
2022/03/17 06:48:22;;;;;;;44.83;32.35;;;;;;;8.33;79.76;100555.59;4953840;29;20167;-66
2022/03/17 06:50:47;;;;;;;41.38;31.05;;;;;;;8.34;79.86;100557.31;4953595;29;20070;-66
2022/03/17 06:53:13;;;;;;;39.22;30.27;;;;;;;8.35;79.80;100569.53;4953558;29;20042;-66
2022/03/17 06:55:38;;;;;;;36.65;28.95;;;;;;;8.34;80.46;100566.94;4953552;29;20051;-63
2022/03/17 06:58:03;;;;;;;41.55;31.75;;;;;;;8.35;80.52;100572.19;4953512;29;20042;-66
2022/03/17 07:00:29;;;;;;;36.83;30.77;;;;;;;8.34;79.75;100588.84;4953537;29;20043;-65
2022/03/17 07:02:54;;;;;;;38.38;30.30;;;;;;;8.37;79.76;100585.28;4953301;29;20112;-66
2022/03/17 07:05:19;;;;;;;33.65;27.85;;;;;;;8.39;79.68;100591.34;4953230;29;20036;-66
2022/03/17 07:07:45;;;;;;;36.00;28.85;;;;;;;8.36;79.51;100591.41;4953158;29;20043;-67
2022/03/17 07:10:11;;;;;;;33.47;28.58;;;;;;;8.42;79.85;100599.19;4953756;29;20182;-66
2022/03/17 07:12:39;;;;;;;36.92;31.10;;;;;;;8.44;78.68;100602.63;4953961;29;20043;-67
2022/03/17 07:15:05;;;;;;;34.03;25.13;;;;;;;8.46;78.11;100602.56;4952904;29;20039;-66
2022/03/17 07:17:44;;;;;;;33.08;27.77;;;;;;;8.51;78.21;100613.81;4952752;28;20110;-65
2022/03/17 07:20:12;;;;;;;36.50;29.08;;;;;;;8.46;78.49;100620.97;4937543;29;20042;-65
2022/03/17 07:22:40;;;;;;;33.47;27.67;;;;;;;8.44;78.23;100625.41;4952675;29;20126;-65
2022/03/17 07:25:05;;;;;;;37.83;25.30;;;;;;;8.46;78.30;100620.97;4935966;29;20492;-65
2022/03/17 07:27:35;;;;;;;35.53;27.50;;;;;;;8.46;78.00;100629.72;4953049;29;20043;-66
2022/03/17 07:30:02;;;;;;;32.92;24.65;;;;;;;8.50;77.92;100628.72;4935501;29;20126;-66
2022/03/17 07:32:29;;;;;;;28.42;21.85;;;;;;;8.52;76.60;100628.69;4952638;29;20039;-66
2022/03/17 07:34:54;;;;;;;30.02;20.40;;;;;;;8.52;75.92;100645.31;4953270;29;20455;-66
2022/03/17 07:37:20;;;;;;;28.08;21.25;;;;;;;8.47;76.46;100644.59;4953467;29;20051;-67
2022/03/17 07:39:46;;;;;;;26.65;18.65;;;;;;;8.45;76.37;100650.78;4953288;29;20045;-66
2022/03/17 07:42:11;;;;;;;26.95;20.85;;;;;;;8.49;77.04;100660.28;4953327;29;20102;-67
2022/03/17 07:44:37;;;;;;;26.73;20.30;;;;;;;8.45;76.83;100664.78;4952608;29;20043;-66
2022/03/17 07:47:03;;;;;;;27.15;20.95;;;;;;;8.45;76.87;100669.19;4952882;28;20050;-67
2022/03/17 07:49:29;;;;;;;31.15;20.83;;;;;;;8.47;76.65;100675.28;4935272;28;20067;-67
2022/03/17 07:51:54;;;;;;;26.00;20.92;;;;;;;8.45;77.00;100679.69;4951620;29;20066;-67
2022/03/17 07:54:20;;;;;;;26.77;21.10;;;;;;;8.45;76.90;100684.94;4952371;29;20433;-66
2022/03/17 07:56:45;;;;;;;28.05;21.30;;;;;;;8.43;77.63;100689.38;4952708;29;20031;-66
2022/03/17 07:59:11;;;;;;;31.92;24.27;;;;;;;8.33;77.34;100692.19;4952832;29;20027;-66
2022/03/17 08:01:36;;;;;;;35.40;21.38;;;;;;;8.31;78.34;100694.00;4951536;29;20142;-67
2022/03/17 08:04:02;;;;;;;37.80;23.40;;;;;;;8.38;78.46;100702.59;4952255;29;20023;-66
2022/03/17 08:06:27;;;;;;;27.67;22.02;;;;;;;8.38;78.63;100706.09;4942223;29;20078;-67
2022/03/17 08:08:53;;;;;;;26.52;19.48;;;;;;;8.30;77.57;100707.19;4951105;29;20122;-66
2022/03/17 08:11:19;;;;;;;26.98;19.17;;;;;;;8.23;77.39;100708.25;4951616;29;20035;-66
2022/03/17 08:13:45;;;;;;;22.65;15.73;;;;;;;8.21;78.28;100708.28;4951918;29;20123;-66
2022/03/17 08:16:12;;;;;;;27.27;19.00;;;;;;;8.27;77.24;100725.63;4952686;29;20126;-66
2022/03/17 08:18:38;;;;;;;24.23;16.17;;;;;;;8.28;77.24;100722.97;4952322;29;20480;-66
2022/03/17 08:21:03;;;;;;;22.38;15.15;;;;;;;8.29;77.94;100727.31;4951494;29;21447;-65
2022/03/17 08:23:29;;;;;;;19.77;15.15;;;;;;;8.33;76.64;100725.50;4952674;29;20054;-65
2022/03/17 08:25:54;;;;;;;22.77;15.07;;;;;;;8.37;76.29;100740.28;4952129;29;20054;-65
2022/03/17 08:28:19;;;;;;;18.27;13.82;;;;;;;8.42;76.58;100738.44;4951884;28;20043;-67
2022/03/17 08:30:46;;;;;;;15.98;12.70;;;;;;;8.44;76.31;100736.66;4951747;29;20035;-67
2022/03/17 08:33:13;;;;;;;25.80;15.55;;;;;;;8.48;76.44;100742.69;4952882;29;20087;-66
2022/03/17 08:35:39;;;;;;;18.02;10.88;;;;;;;8.52;75.10;100749.59;4952882;29;20117;-66
2022/03/17 08:38:04;;;;;;;12.93;9.27;;;;;;;8.57;74.65;100755.59;4941756;29;20075;-66
2022/03/17 08:40:29;;;;;;;23.30;11.95;;;;;;;8.66;75.10;100767.63;4951169;29;20059;-66
2022/03/17 08:42:55;;;;;;;21.27;10.73;;;;;;;8.72;75.27;100776.22;4951363;28;20050;-67
2022/03/17 08:50:48;;;;;;;15.73;9.77;;;;;;;8.80;74.08;100786.53;4936624;29;20038;-66
2022/03/17 08:53:14;;;;;;;12.15;8.90;;;;;;;8.73;73.99;100796.34;4934747;29;20615;-66
2022/03/17 08:55:40;;;;;;;9.75;7.40;;;;;;;8.74;73.39;100797.22;4951679;29;20122;-65
2022/03/17 08:58:06;;;;;;;10.35;7.65;;;;;;;8.70;74.39;100806.09;4951754;29;20035;-67
2022/03/17 09:00:34;;;;;;;29.73;7.70;;;;;;;8.63;73.78;100809.75;4951506;29;20098;-67
2022/03/17 09:03:03;;;;;;;14.63;6.88;;;;;;;8.45;73.94;100816.34;4952537;29;20051;-67
2022/03/17 09:05:30;;;;;;;13.15;7.50;;;;;;;8.44;74.23;100817.22;4953338;29;20065;-67
2022/03/17 09:07:56;;;;;;;9.00;6.32;;;;;;;8.40;74.61;100823.47;4957402;29;20030;-66
2022/03/17 09:10:22;;;;;;;6.70;5.07;;;;;;;8.41;73.21;100830.44;4955754;29;20097;-66
2022/03/17 09:12:47;;;;;;;14.00;7.45;;;;;;;8.28;73.96;100833.31;4952905;29;20035;-66
2022/03/17 09:15:14;;;;;;;11.25;5.28;;;;;;;8.35;74.19;100837.53;4953334;29;20043;-65
2022/03/17 09:17:41;;;;;;;14.82;6.28;;;;;;;8.48;73.65;100840.78;4953869;29;20380;-65
2022/03/17 09:20:15;;;;;;;7.57;4.80;;;;;;;8.48;72.93;100845.16;4954956;29;20471;-68
2022/03/17 09:22:44;;;;;;;7.28;5.13;;;;;;;8.57;72.50;100847.59;4953070;29;20059;-67
2022/03/17 09:25:11;;;;;;;8.43;5.78;;;;;;;8.60;72.02;100850.13;4953119;29;20160;-66
2022/03/17 09:27:37;;;;;;;11.20;5.72;;;;;;;8.63;72.15;100857.94;4951703;29;20392;-66
2022/03/17 09:30:03;;;;;;;14.88;6.20;;;;;;;8.73;71.02;100851.56;4950490;29;20039;-66
2022/03/17 09:32:28;;;;;;;14.98;6.25;;;;;;;8.81;70.28;100854.88;4950689;29;20406;-66
2022/03/17 09:34:54;;;;;;;11.00;6.22;;;;;;;8.81;70.50;100861.88;4951156;29;20142;-66
2022/03/17 09:37:19;;;;;;;12.77;6.95;;;;;;;8.87;71.24;100871.41;4951033;29;20045;-67
2022/03/17 09:39:48;;;;;;;17.42;6.60;;;;;;;8.88;70.40;100863.44;4951306;28;20039;-67
2022/03/17 09:42:17;;;;;;;13.93;6.07;;;;;;;9.01;70.31;100869.28;4954674;29;20031;-66
2022/03/17 09:44:46;;;;;;;17.58;6.97;;;;;;;9.12;70.68;100867.22;4954743;29;20435;-66
2022/03/17 09:47:18;;;;;;;12.73;5.57;;;;;;;9.31;70.64;100867.63;4953980;28;20035;-66
2022/03/17 09:49:44;;;;;;;11.65;5.88;;;;;;;9.56;68.67;100880.97;4955418;28;20054;-66
2022/03/17 09:52:14;;;;;;;14.00;6.38;;;;;;;9.61;67.45;100881.72;4954537;28;20035;-66
2022/03/17 09:54:42;;;;;;;17.08;6.15;;;;;;;9.44;67.76;100878.69;4954712;28;20102;-65
2022/03/17 09:57:08;;;;;;;8.32;5.22;;;;;;;9.32;68.09;100890.38;4953465;28;20031;-66
2022/03/17 09:59:34;;;;;;;12.75;5.50;;;;;;;9.31;68.04;100888.69;4954701;28;20043;-66
2022/03/17 10:02:00;;;;;;;8.38;5.15;;;;;;;9.10;67.18;100905.00;4954104;28;20553;-65
2022/03/17 10:04:31;;;;;;;8.25;3.83;;;;;;;8.88;66.93;100907.31;4954698;28;20415;-66
2022/03/17 10:06:57;;;;;;;9.40;3.35;;;;;;;8.77;67.02;100905.78;4954871;28;20037;-66
2022/03/17 10:09:22;;;;;;;9.02;3.97;;;;;;;8.77;67.18;100903.16;4951691;28;20046;-68
2022/03/17 10:12:06;;;;;;;9.35;3.20;;;;;;;8.74;66.24;100920.78;4936859;29;20399;-67
2022/03/17 10:14:38;;;;;;;7.65;3.75;;;;;;;8.73;68.09;100917.28;4937035;29;20043;-66
2022/03/17 10:17:06;;;;;;;6.95;3.53;;;;;;;8.81;66.58;100922.34;4954531;29;20043;-65
2022/03/17 10:19:33;;;;;;;11.18;3.75;;;;;;;8.80;65.59;100920.63;4954305;29;20043;-66
2022/03/17 10:22:14;;;;;;;8.50;3.67;;;;;;;8.73;67.60;100926.94;4953648;29;20059;-67
2022/03/17 10:24:52;;;;;;;15.80;4.45;;;;;;;8.89;66.94;100937.97;4954443;29;20043;-66
2022/03/17 10:27:45;;;;;;;10.43;4.82;;;;;;;8.97;67.32;100936.88;4954134;29;20411;-67
2022/03/17 10:30:12;;;;;;;9.15;3.97;;;;;;;8.99;66.27;100932.44;4954236;29;20035;-66
2022/03/17 10:32:38;;;;;;;11.32;4.95;;;;;;;8.87;65.87;100943.25;4953941;29;20031;-67
2022/03/17 10:35:05;;;;;;;6.70;3.22;;;;;;;9.02;65.47;100950.78;4954130;29;20046;-67
2022/03/17 10:37:35;;;;;;;6.13;3.20;;;;;;;9.16;64.63;100950.44;4953904;29;20035;-67
2022/03/17 10:40:07;;;;;;;6.10;3.83;;;;;;;9.26;64.58;100952.88;4953749;29;20118;-68
2022/03/17 10:42:33;;;;;;;7.90;2.88;;;;;;;9.18;62.62;100953.91;4952700;28;20047;-65
2022/03/17 10:45:05;;;;;;;6.00;2.53;;;;;;;9.13;62.15;100950.53;4953406;28;20039;-67
2022/03/17 10:47:38;;;;;;;10.18;2.63;;;;;;;9.14;62.20;100952.25;4953347;28;20050;-66
2022/03/17 10:50:09;;;;;;;8.60;3.20;;;;;;;9.22;62.50;100959.94;4953596;28;20042;-67
2022/03/17 10:52:50;;;;;;;4.95;2.90;;;;;;;9.35;62.36;100963.13;4952314;28;20134;-66
2022/03/17 10:55:23;;;;;;;10.48;3.65;;;;;;;9.43;62.43;100972.56;4953019;28;20181;-66
2022/03/17 10:57:49;;;;;;;5.82;2.92;;;;;;;9.45;62.08;100969.88;4952280;28;20090;-66
2022/03/17 11:00:24;;;;;;;6.93;3.55;;;;;;;9.39;62.37;100970.06;4952748;28;20094;-66
2022/03/17 11:02:50;;;;;;;6.97;3.03;;;;;;;9.35;61.71;100977.19;4953625;28;20039;-68
2022/03/17 11:05:19;;;;;;;12.23;3.10;;;;;;;9.31;61.57;100978.16;4953728;28;20031;-66
2022/03/17 11:07:48;;;;;;;4.57;2.47;;;;;;;9.34;62.32;100979.84;4953919;28;20035;-66
2022/03/17 11:10:19;;;;;;;8.25;3.30;;;;;;;9.47;60.87;100991.78;4934200;29;20042;-66
2022/03/17 11:12:45;;;;;;;6.30;2.67;;;;;;;9.50;60.87;100983.81;4953343;28;20120;-65
2022/03/17 11:15:11;;;;;;;5.63;2.10;;;;;;;9.65;59.59;100993.94;4953407;28;20035;-67
2022/03/17 11:17:44;;;;;;;6.32;2.70;;;;;;;9.65;59.67;100999.22;4953545;28;20035;-67
2022/03/17 11:20:12;;;;;;;14.52;2.55;;;;;;;9.73;60.31;100995.53;4953106;28;20043;-65
2022/03/17 11:22:39;;;;;;;7.03;3.22;;;;;;;9.82;60.41;101003.16;4952313;28;20031;-66
2022/03/17 11:25:24;;;;;;;8.55;2.80;;;;;;;9.80;60.06;101000.59;4936419;28;23700;-65
2022/03/17 11:27:56;;;;;;;10.02;3.90;;;;;;;9.70;60.15;101004.38;4953271;28;20035;-67
2022/03/17 11:30:22;;;;;;;6.95;2.60;;;;;;;9.77;60.39;101000.69;4953428;28;20098;-66
2022/03/17 11:32:54;;;;;;;10.15;3.50;;;;;;;9.73;60.72;101000.78;4935465;28;20031;-68